createdAt,value
2023-04-29T00:02:01.684Z,32.53
2023-04-29T00:04:33.818Z,32.40
2023-04-29T00:07:02.271Z,30.13
2023-04-29T00:09:30.368Z,28.97
2023-04-29T00:11:58.483Z,28.63
2023-04-29T00:14:26.719Z,28.37
2023-04-29T00:16:54.864Z,27.73
2023-04-29T00:19:25.511Z,29.27
2023-04-29T00:21:57.530Z,26.77
2023-04-29T00:24:28.033Z,26.93
2023-04-29T00:26:58.441Z,25.73
2023-04-29T00:29:27.795Z,24.27
2023-04-29T00:31:58.196Z,22.50
2023-04-29T00:34:26.675Z,22.17
2023-04-29T00:36:54.879Z,20.60
2023-04-29T00:39:24.914Z,21.50
2023-04-29T00:41:53.303Z,19.87
2023-04-29T00:44:22.364Z,19.80
2023-04-29T00:46:50.433Z,20.00
2023-04-29T00:49:21.381Z,21.40
2023-04-29T00:51:52.370Z,21.23
2023-04-29T00:54:21.630Z,20.53
2023-04-29T00:56:52.372Z,19.93
2023-04-29T00:59:20.509Z,19.63
2023-04-29T01:01:50.973Z,22.07
2023-04-29T01:04:19.859Z,20.17
2023-04-29T01:06:57.507Z,21.27
2023-04-29T01:09:48.524Z,20.60
2023-04-29T01:12:26.328Z,20.50
2023-04-29T01:15:05.089Z,21.40
2023-04-29T01:17:42.538Z,22.47
2023-04-29T01:20:11.369Z,22.97
2023-04-29T01:22:39.616Z,21.97
2023-04-29T01:25:13.067Z,22.87
2023-04-29T01:28:15.955Z,21.67
2023-04-29T01:30:51.412Z,23.30
2023-04-29T01:33:27.499Z,25.17
2023-04-29T01:36:08.817Z,24.57
2023-04-29T01:38:43.081Z,24.47
2023-04-29T01:41:17.109Z,26.83
2023-04-29T01:43:51.473Z,25.50
2023-04-29T01:46:25.070Z,25.27
2023-04-29T01:48:57.334Z,25.03
2023-04-29T01:51:25.506Z,26.17
2023-04-29T01:53:55.907Z,26.63
2023-04-29T01:56:25.685Z,24.83
2023-04-29T01:59:04.131Z,27.33
2023-04-29T02:01:50.915Z,24.73
2023-04-29T02:04:19.163Z,28.17
2023-04-29T02:06:47.716Z,25.53
2023-04-29T02:09:19.386Z,26.07
2023-04-29T02:11:54.420Z,25.77
2023-04-29T02:14:24.964Z,26.07
2023-04-29T02:16:53.247Z,26.83
2023-04-29T02:19:21.437Z,25.80
2023-04-29T02:21:53.860Z,27.47
2023-04-29T02:24:22.197Z,25.87
2023-04-29T02:26:50.275Z,26.47
2023-04-29T02:29:19.828Z,26.33
2023-04-29T02:31:50.804Z,27.63
2023-04-29T02:34:18.999Z,27.13
2023-04-29T02:36:47.417Z,26.43
2023-04-29T02:39:15.647Z,25.03
2023-04-29T02:41:43.784Z,24.73
2023-04-29T02:44:12.840Z,24.57
2023-04-29T02:46:45.463Z,24.27
2023-04-29T02:49:14.701Z,25.47
2023-04-29T02:51:42.986Z,25.90
2023-04-29T02:54:13.283Z,25.00
2023-04-29T02:56:44.603Z,24.23
2023-04-29T02:59:12.735Z,22.83
2023-04-29T03:01:44.816Z,24.17
2023-04-29T03:04:14.059Z,23.07
2023-04-29T03:06:43.629Z,22.23
2023-04-29T03:09:13.345Z,22.50
2023-04-29T03:11:46.674Z,21.23
2023-04-29T03:14:17.283Z,22.97
2023-04-29T03:16:50.586Z,21.43
2023-04-29T03:19:18.768Z,21.53
2023-04-29T03:21:46.979Z,21.60
2023-04-29T03:24:15.860Z,21.13
2023-04-29T03:26:44.231Z,21.07
2023-04-29T03:29:12.557Z,19.27
2023-04-29T03:31:40.720Z,23.43
2023-04-29T03:34:10.582Z,21.70
2023-04-29T03:36:45.210Z,21.73
2023-04-29T03:39:13.603Z,20.90
2023-04-29T03:41:41.713Z,22.17
2023-04-29T03:44:10.313Z,23.57
2023-04-29T03:46:41.279Z,22.03
2023-04-29T03:49:10.912Z,22.87
2023-04-29T03:51:41.514Z,23.73
2023-04-29T03:54:15.275Z,23.77
2023-04-29T03:56:46.047Z,23.57
2023-04-29T03:59:14.510Z,24.50
2023-04-29T04:01:43.355Z,23.40
2023-04-29T04:04:13.698Z,24.30
2023-04-29T04:06:51.185Z,25.77
2023-04-29T04:09:21.751Z,25.00
2023-04-29T04:11:49.876Z,24.47
2023-04-29T04:14:20.668Z,24.80
2023-04-29T04:16:50.671Z,24.53
2023-04-29T04:19:22.465Z,24.90
2023-04-29T04:21:52.661Z,24.77
2023-04-29T04:24:20.769Z,25.50
2023-04-29T04:26:51.502Z,24.37
2023-04-29T04:29:24.468Z,27.27
2023-04-29T04:32:01.103Z,26.73
2023-04-29T04:34:35.568Z,25.30
2023-04-29T04:37:04.524Z,25.43
2023-04-29T04:39:33.764Z,26.20
2023-04-29T04:42:03.763Z,24.80
2023-04-29T04:44:35.531Z,25.67
2023-04-29T04:47:08.625Z,24.93
2023-04-29T04:50:00.604Z,25.83
2023-04-29T04:52:30.600Z,24.13
2023-04-29T04:55:17.077Z,24.23
2023-04-29T04:57:50.680Z,24.17
2023-04-29T05:00:21.508Z,25.00
2023-04-29T05:02:54.362Z,24.70
2023-04-29T05:05:26.492Z,24.17
2023-04-29T05:07:54.815Z,23.93
2023-04-29T05:10:30.183Z,23.73
2023-04-29T05:13:01.650Z,23.70
2023-04-29T05:15:29.787Z,23.93
2023-04-29T05:18:01.005Z,25.57
2023-04-29T05:20:30.546Z,22.87
2023-04-29T05:22:59.345Z,24.80
2023-04-29T05:25:31.785Z,23.70
2023-04-29T05:28:04.250Z,24.03
2023-04-29T05:30:34.508Z,24.67
2023-04-29T05:33:03.725Z,24.47
2023-04-29T05:35:33.331Z,25.70
2023-04-29T05:38:01.732Z,23.20
2023-04-29T05:40:37.377Z,23.93
2023-04-29T05:43:23.919Z,25.07
2023-04-29T05:45:54.514Z,23.93
2023-04-29T05:48:22.795Z,23.93
2023-04-29T05:50:53.988Z,23.47
2023-04-29T05:53:24.364Z,24.03
2023-04-29T05:55:52.723Z,23.33
2023-04-29T05:58:22.567Z,22.63
2023-04-29T06:00:53.484Z,23.30
2023-04-29T06:03:26.931Z,21.90
2023-04-29T06:06:24.220Z,23.33
2023-04-29T06:09:08.582Z,24.40
2023-04-29T06:11:44.233Z,25.50
2023-04-29T06:14:12.403Z,26.60
2023-04-29T06:16:41.579Z,26.63
2023-04-29T06:19:10.633Z,27.60
2023-04-29T06:21:40.107Z,27.43
2023-04-29T06:24:10.709Z,28.00
2023-04-29T06:26:38.971Z,26.57
2023-04-29T06:29:07.092Z,28.23
2023-04-29T06:31:37.326Z,29.53
2023-04-29T06:34:09.013Z,28.90
2023-04-29T06:36:47.338Z,29.30
2023-04-29T06:39:34.158Z,30.03
2023-04-29T06:42:19.549Z,28.77
2023-04-29T06:45:07.349Z,27.97
2023-04-29T06:47:47.254Z,29.03
2023-04-29T06:50:26.041Z,29.30
2023-04-29T06:52:55.782Z,28.17
2023-04-29T06:55:26.313Z,27.17
2023-04-29T06:57:54.896Z,27.37
2023-04-29T07:00:25.217Z,27.30
2023-04-29T07:02:56.837Z,27.70
2023-04-29T07:05:27.319Z,27.17
2023-04-29T07:07:59.960Z,26.30
2023-04-29T07:10:28.105Z,25.87
2023-04-29T07:12:56.236Z,26.20
2023-04-29T07:15:24.421Z,27.30
2023-04-29T07:17:53.166Z,25.93
2023-04-29T07:20:28.293Z,25.30
2023-04-29T07:23:00.355Z,24.17
2023-04-29T07:25:29.358Z,25.60
2023-04-29T07:27:57.666Z,24.37
2023-04-29T07:30:27.004Z,22.43
2023-04-29T07:32:55.190Z,22.93
2023-04-29T07:35:26.395Z,21.33
2023-04-29T07:37:54.551Z,21.27
2023-04-29T07:40:24.314Z,21.07
2023-04-29T07:42:57.879Z,21.93
2023-04-29T07:45:26.136Z,22.77
2023-04-29T07:47:56.433Z,22.40
2023-04-29T07:50:24.641Z,21.53
2023-04-29T07:52:57.759Z,20.60
2023-04-29T07:55:30.706Z,20.03
2023-04-29T07:58:00.624Z,19.10
2023-04-29T08:00:29.500Z,19.30
2023-04-29T08:02:58.397Z,19.83
2023-04-29T08:05:28.014Z,19.53
2023-04-29T08:07:56.634Z,19.80
2023-04-29T08:10:27.300Z,18.80
2023-04-29T08:12:59.208Z,19.97
2023-04-29T08:15:27.516Z,19.10
2023-04-29T08:17:56.232Z,18.93
2023-04-29T08:20:24.412Z,19.43
2023-04-29T08:22:53.392Z,18.47
2023-04-29T08:25:21.556Z,20.23
2023-04-29T08:27:49.659Z,18.50
2023-04-29T08:30:19.760Z,18.17
2023-04-29T08:32:47.945Z,18.83
2023-04-29T08:35:16.152Z,18.60
2023-04-29T08:37:44.297Z,18.47
2023-04-29T08:40:14.454Z,17.57
2023-04-29T08:42:48.869Z,18.37
2023-04-29T08:45:21.141Z,17.07
2023-04-29T08:47:51.425Z,16.10
2023-04-29T08:50:22.293Z,16.60
2023-04-29T08:52:52.988Z,16.40
2023-04-29T08:55:21.117Z,16.87
2023-04-29T08:57:54.293Z,16.93
2023-04-29T09:00:25.708Z,16.23
2023-04-29T09:02:57.718Z,14.60
2023-04-29T09:05:27.046Z,14.87
2023-04-29T09:07:59.630Z,15.03
2023-04-29T09:10:28.325Z,15.17
2023-04-29T09:12:58.453Z,13.83
2023-04-29T09:15:28.052Z,14.50
2023-04-29T09:17:57.255Z,14.50
2023-04-29T09:20:28.935Z,13.53
2023-04-29T09:23:01.324Z,13.50
2023-04-29T09:25:32.574Z,12.93
2023-04-29T09:28:16.546Z,12.83
2023-04-29T09:30:50.671Z,13.07
2023-04-29T09:33:18.878Z,12.50
2023-04-29T09:35:48.743Z,12.23
2023-04-29T09:38:18.366Z,12.77
2023-04-29T09:40:59.166Z,12.47
2023-04-29T09:43:31.473Z,11.83
2023-04-29T09:46:00.988Z,12.10
2023-04-29T09:48:35.405Z,12.30
2023-04-29T09:51:04.176Z,11.63
2023-04-29T09:53:33.403Z,11.43
2023-04-29T09:56:05.337Z,11.07
2023-04-29T09:58:38.936Z,10.57
2023-04-29T10:01:08.711Z,11.93
2023-04-29T10:03:39.010Z,10.90
2023-04-29T10:06:08.735Z,11.70
2023-04-29T10:08:37.253Z,10.70
2023-04-29T10:11:07.562Z,10.30
2023-04-29T10:13:38.500Z,10.70
2023-04-29T10:16:16.703Z,10.40
2023-04-29T10:18:53.391Z,10.73
2023-04-29T10:21:29.741Z,9.83
2023-04-29T10:23:59.380Z,9.97
2023-04-29T10:26:29.335Z,9.73
2023-04-29T10:29:01.218Z,10.63
2023-04-29T10:31:31.465Z,9.47
2023-04-29T10:34:01.655Z,10.57
2023-04-29T10:36:34.913Z,10.53
2023-04-29T10:39:06.048Z,9.47
2023-04-29T10:41:44.866Z,9.90
2023-04-29T10:44:13.021Z,9.73
2023-04-29T10:46:45.072Z,9.10
2023-04-29T10:49:13.263Z,9.20
2023-04-29T10:51:43.059Z,9.63
2023-04-29T10:54:13.978Z,9.83
2023-04-29T10:56:44.051Z,9.83
2023-04-29T10:59:14.209Z,9.23
2023-04-29T11:01:50.776Z,8.40
2023-04-29T11:04:20.248Z,8.37
2023-04-29T11:06:53.864Z,8.47
2023-04-29T11:09:27.286Z,8.70
2023-04-29T11:12:05.726Z,8.70
2023-04-29T11:14:37.955Z,9.10
2023-04-29T11:17:10.514Z,8.70
2023-04-29T11:19:45.040Z,8.50
2023-04-29T11:22:26.607Z,9.10
2023-04-29T11:25:00.481Z,8.60
2023-04-29T11:27:33.132Z,8.70
2023-04-29T11:30:04.950Z,8.33
2023-04-29T11:32:36.198Z,8.03
2023-04-29T11:35:11.783Z,9.20
2023-04-29T11:37:43.391Z,8.70
2023-04-29T11:40:13.302Z,9.23
2023-04-29T11:42:45.396Z,9.00
2023-04-29T11:45:14.682Z,8.47
2023-04-29T11:47:46.860Z,8.30
2023-04-29T11:50:17.862Z,8.37
2023-04-29T11:52:51.243Z,8.73
2023-04-29T11:55:22.106Z,8.07
2023-04-29T11:57:53.385Z,7.63
2023-04-29T12:00:21.904Z,7.97
2023-04-29T12:02:53.849Z,8.47
2023-04-29T12:05:22.466Z,8.30
2023-04-29T12:07:51.242Z,7.17
2023-04-29T12:10:22.277Z,7.93
2023-04-29T12:12:50.688Z,7.30
2023-04-29T12:15:19.105Z,6.90
2023-04-29T12:17:47.426Z,6.67
2023-04-29T12:20:17.292Z,5.50
2023-04-29T12:22:48.853Z,5.30
2023-04-29T12:25:18.207Z,4.97
2023-04-29T12:27:46.657Z,4.87
2023-04-29T12:30:15.302Z,5.63
2023-04-29T12:32:43.469Z,5.27
2023-04-29T12:35:19.482Z,5.47
2023-04-29T12:37:50.930Z,5.40
2023-04-29T12:40:20.683Z,5.47
2023-04-29T12:42:49.223Z,5.33
2023-04-29T12:45:32.963Z,5.80
2023-04-29T12:48:08.783Z,5.07
2023-04-29T12:50:40.225Z,4.40
2023-04-29T12:53:11.783Z,4.80
2023-04-29T12:55:40.203Z,3.80
2023-04-29T12:58:10.596Z,5.20
2023-04-29T13:00:41.140Z,4.13
2023-04-29T13:03:12.105Z,4.60
2023-04-29T13:05:44.190Z,4.97
2023-04-29T13:08:15.351Z,4.63
2023-04-29T13:10:46.543Z,4.50
2023-04-29T13:13:14.832Z,5.03
2023-04-29T13:15:42.927Z,5.43
2023-04-29T13:18:13.283Z,5.13
2023-04-29T13:20:45.090Z,5.83
2023-04-29T13:23:13.252Z,5.37
2023-04-29T13:25:43.780Z,4.67
2023-04-29T13:28:12.644Z,3.80
2023-04-29T13:30:43.208Z,4.27
2023-04-29T13:33:13.334Z,3.10
2023-04-29T13:35:45.604Z,3.33
2023-04-29T13:38:13.778Z,3.33
2023-04-29T13:40:46.550Z,3.60
2023-04-29T13:43:18.654Z,3.40
2023-04-29T13:45:53.294Z,3.20
2023-04-29T13:49:00.870Z,3.90
2023-04-29T13:54:37.452Z,3.70
2023-04-29T14:02:21.784Z,3.63
2023-04-29T14:04:28.577Z,3.90
2023-04-29T14:07:00.746Z,4.00
2023-04-29T14:09:31.940Z,3.53
2023-04-29T14:12:00.093Z,2.87
2023-04-29T14:14:30.594Z,3.20
2023-04-29T14:17:01.545Z,3.70
2023-04-29T14:19:32.060Z,3.07
2023-04-29T14:22:01.949Z,2.30
2023-04-29T14:24:30.095Z,2.60
2023-04-29T14:26:59.049Z,2.57
2023-04-29T14:29:27.398Z,2.77
2023-04-29T14:31:58.545Z,2.50
2023-04-29T14:34:28.157Z,2.70
2023-04-29T14:36:59.093Z,2.97
2023-04-29T14:39:28.644Z,2.70
2023-04-29T14:42:00.032Z,3.47
2023-04-29T14:44:28.924Z,2.83
2023-04-29T14:46:59.479Z,3.03
2023-04-29T14:49:29.506Z,2.70
2023-04-29T14:52:01.358Z,2.73
2023-04-29T14:54:33.211Z,3.03
2023-04-29T14:57:02.202Z,2.70
2023-04-29T14:59:30.873Z,2.57
2023-04-29T15:01:59.253Z,2.53
2023-04-29T15:04:30.065Z,2.33
2023-04-29T15:07:00.785Z,2.30
2023-04-29T15:09:29.070Z,3.00
2023-04-29T15:11:58.571Z,3.10
2023-04-29T15:14:26.789Z,2.47
2023-04-29T15:16:55.097Z,2.73
2023-04-29T15:19:25.208Z,2.23
2023-04-29T15:21:53.578Z,2.40
2023-04-29T15:24:21.739Z,2.50
2023-04-29T15:26:51.856Z,2.40
2023-04-29T15:29:23.608Z,2.90
2023-04-29T15:31:51.872Z,2.97
2023-04-29T15:34:20.050Z,2.70
2023-04-29T15:36:48.212Z,2.97
2023-04-29T15:39:17.233Z,3.20
2023-04-29T15:41:49.898Z,2.80
2023-04-29T15:44:18.045Z,2.87
2023-04-29T15:46:47.606Z,3.20
2023-04-29T15:49:15.771Z,2.90
2023-04-29T15:51:46.694Z,3.33
2023-04-29T15:54:14.890Z,3.67
2023-04-29T15:56:43.115Z,3.57
2023-04-29T15:59:11.289Z,3.10
2023-04-29T16:01:39.875Z,3.50
2023-04-29T16:04:09.471Z,3.47
2023-04-29T16:06:39.723Z,3.80
2023-04-29T16:09:07.984Z,3.30
2023-04-29T16:11:36.521Z,3.47
2023-04-29T16:14:04.698Z,3.70
2023-04-29T16:16:33.180Z,3.20
2023-04-29T16:19:01.426Z,3.10
2023-04-29T16:21:34.074Z,2.70
2023-04-29T16:24:02.308Z,2.53
2023-04-29T16:26:31.764Z,2.87
2023-04-29T16:29:00.497Z,2.30
2023-04-29T16:31:29.342Z,2.30
2023-04-29T16:33:58.150Z,2.23
2023-04-29T16:36:26.618Z,2.13
2023-04-29T16:38:56.236Z,2.70
2023-04-29T16:41:26.131Z,2.97
2023-04-29T16:43:54.748Z,2.20
2023-04-29T16:46:23.381Z,2.30
2023-04-29T16:48:52.109Z,5.43
2023-04-29T16:51:20.405Z,4.10
2023-04-29T16:53:48.570Z,4.57
2023-04-29T16:56:18.156Z,2.47
2023-04-29T16:58:46.643Z,2.87
2023-04-29T17:01:15.040Z,2.77
2023-04-29T17:03:43.361Z,2.43
2023-04-29T17:06:11.709Z,2.70
2023-04-29T17:08:39.908Z,3.10
2023-04-29T17:11:08.194Z,2.90
2023-04-29T17:13:37.810Z,2.77
2023-04-29T17:16:07.063Z,2.63
2023-04-29T17:18:35.961Z,2.77
2023-04-29T17:21:04.179Z,2.80
2023-04-29T17:23:34.345Z,2.50
2023-04-29T17:26:02.901Z,2.53
2023-04-29T17:28:31.088Z,2.80
2023-04-29T17:31:01.472Z,2.50
2023-04-29T17:33:34.155Z,3.63
2023-04-29T17:36:05.773Z,3.10
2023-04-29T17:38:34.457Z,3.27
2023-04-29T17:41:03.106Z,4.73
2023-04-29T17:43:33.272Z,3.37
2023-04-29T17:46:03.117Z,3.23
2023-04-29T17:48:32.347Z,3.40
2023-04-29T17:51:00.603Z,2.87
2023-04-29T17:53:28.656Z,2.90
2023-04-29T17:55:56.832Z,2.77
2023-04-29T17:58:24.931Z,2.53
2023-04-29T18:00:53.093Z,2.43
2023-04-29T18:03:27.200Z,2.70
2023-04-29T18:05:57.919Z,2.80
2023-04-29T18:08:28.446Z,2.63
2023-04-29T18:10:58.890Z,2.83
2023-04-29T18:13:27.348Z,3.73
2023-04-29T18:15:55.736Z,3.90
2023-04-29T18:18:26.022Z,2.50
2023-04-29T18:20:54.187Z,3.30
2023-04-29T18:23:22.695Z,2.50
2023-04-29T18:25:53.173Z,2.87
2023-04-29T18:28:25.155Z,2.50
2023-04-29T18:30:56.898Z,2.80
2023-04-29T18:33:30.946Z,2.40
2023-04-29T18:35:59.211Z,3.00
2023-04-29T18:38:29.976Z,2.93
2023-04-29T18:40:58.129Z,3.10
2023-04-29T18:43:28.447Z,2.83
2023-04-29T18:45:59.542Z,2.47
2023-04-29T18:48:29.793Z,2.60
2023-04-29T18:51:02.806Z,2.80
2023-04-29T18:53:31.084Z,3.20
2023-04-29T18:55:59.259Z,2.90
2023-04-29T18:58:27.782Z,2.80
2023-04-29T19:00:59.773Z,3.10
2023-04-29T19:03:29.868Z,2.87
2023-04-29T19:05:58.025Z,3.27
2023-04-29T19:08:26.850Z,3.00
2023-04-29T19:10:58.662Z,3.40
2023-04-29T19:13:29.369Z,2.67
2023-04-29T19:15:57.597Z,3.20
2023-04-29T19:18:29.448Z,2.97
2023-04-29T19:20:57.570Z,2.90
2023-04-29T19:23:25.685Z,3.60
2023-04-29T19:25:56.193Z,3.30
2023-04-29T19:28:24.354Z,3.93
2023-04-29T19:30:54.723Z,2.83
2023-04-29T19:33:25.364Z,2.90
2023-04-29T19:35:54.910Z,3.77
2023-04-29T19:38:23.016Z,3.30
2023-04-29T19:40:51.178Z,3.20
2023-04-29T19:43:19.371Z,3.43
2023-04-29T19:45:47.511Z,3.67
2023-04-29T19:48:15.618Z,3.33
2023-04-29T19:50:43.756Z,3.90
2023-04-29T19:53:15.347Z,4.20
2023-04-29T19:55:45.713Z,3.80
2023-04-29T19:58:16.225Z,3.90
2023-04-29T20:00:44.298Z,3.73
2023-04-29T20:03:12.849Z,3.60
2023-04-29T20:05:43.491Z,3.90
2023-04-29T20:08:11.672Z,3.57
2023-04-29T20:10:43.327Z,4.07
2023-04-29T20:13:11.399Z,3.47
2023-04-29T20:15:41.957Z,4.00
2023-04-29T20:18:10.174Z,3.50
2023-04-29T20:20:38.306Z,3.43
2023-04-29T20:23:08.765Z,3.37
2023-04-29T20:25:36.813Z,3.47
2023-04-29T20:28:09.364Z,4.23
2023-04-29T20:30:39.620Z,3.70
2023-04-29T20:33:10.059Z,3.60
2023-04-29T20:35:38.191Z,3.40
2023-04-29T20:38:08.616Z,3.63
2023-04-29T20:40:36.874Z,3.73
2023-04-29T20:43:09.118Z,3.50
2023-04-29T20:45:38.071Z,3.57
2023-04-29T20:48:07.075Z,3.47
2023-04-29T20:50:35.201Z,3.40
2023-04-29T20:53:03.395Z,3.67
2023-04-29T20:55:33.981Z,3.70
2023-04-29T20:58:04.212Z,4.03
2023-04-29T21:00:36.230Z,3.43
2023-04-29T21:03:04.445Z,3.47
2023-04-29T21:05:34.786Z,3.37
2023-04-29T21:08:06.034Z,3.10
2023-04-29T21:10:34.202Z,3.27
2023-04-29T21:13:02.259Z,3.43
2023-04-29T21:15:32.524Z,3.40
2023-04-29T21:18:02.080Z,4.60
2023-04-29T21:20:32.948Z,3.57
2023-04-29T21:23:01.040Z,3.30
2023-04-29T21:25:31.266Z,3.97
2023-04-29T21:27:59.390Z,3.97
2023-04-29T21:30:29.847Z,3.70
2023-04-29T21:32:58.087Z,4.00
2023-04-29T21:35:27.729Z,3.57
2023-04-29T21:37:56.351Z,3.17
2023-04-29T21:40:27.153Z,4.37
2023-04-29T21:42:56.207Z,4.13
2023-04-29T21:45:24.957Z,3.87
2023-04-29T21:47:55.457Z,3.57
2023-04-29T21:50:23.706Z,3.77
2023-04-29T21:52:55.574Z,3.93
2023-04-29T21:55:25.924Z,3.60
2023-04-29T21:57:54.121Z,3.60
2023-04-29T22:00:34.350Z,4.03
2023-04-29T22:03:05.473Z,3.07
2023-04-29T22:05:34.710Z,3.03
2023-04-29T22:08:08.300Z,3.83
2023-04-29T22:10:40.168Z,3.70
2023-04-29T22:13:08.885Z,4.40
2023-04-29T22:15:37.117Z,4.37
2023-04-29T22:18:05.437Z,3.93
2023-04-29T22:20:33.628Z,4.63
2023-04-29T22:23:01.858Z,4.97
2023-04-29T22:25:31.461Z,5.27
2023-04-29T22:27:59.644Z,5.87
2023-04-29T22:30:30.117Z,5.73
2023-04-29T22:33:00.334Z,4.83
2023-04-29T22:35:28.494Z,5.30
2023-04-29T22:37:56.615Z,5.33
2023-04-29T22:40:24.760Z,5.20
2023-04-29T22:42:54.204Z,4.57
2023-04-29T22:45:22.324Z,3.97
2023-04-29T22:47:50.445Z,3.97
2023-04-29T22:50:18.777Z,3.20
2023-04-29T22:52:46.926Z,3.30
2023-04-29T22:55:15.077Z,3.30
2023-04-29T22:57:44.387Z,2.93
2023-04-29T23:00:15.932Z,3.27
2023-04-29T23:02:44.133Z,3.47
2023-04-29T23:05:12.279Z,2.97
2023-04-29T23:07:41.138Z,3.50
2023-04-29T23:10:12.034Z,3.17
2023-04-29T23:12:40.181Z,3.03
2023-04-29T23:15:09.808Z,2.80
2023-04-29T23:17:41.581Z,3.73
2023-04-29T23:20:13.264Z,3.40
2023-04-29T23:22:46.757Z,3.10
2023-04-29T23:25:14.884Z,3.33
2023-04-29T23:27:43.105Z,3.40
2023-04-29T23:30:11.380Z,3.37
2023-04-29T23:32:40.909Z,3.17
2023-04-29T23:35:12.327Z,3.53
2023-04-29T23:37:40.665Z,3.40
2023-04-29T23:40:11.584Z,3.97
2023-04-29T23:42:39.704Z,3.40
2023-04-29T23:45:10.576Z,3.30
2023-04-29T23:47:39.366Z,3.50
2023-04-29T23:50:10.415Z,3.50
2023-04-29T23:52:38.528Z,3.63
2023-04-29T23:55:07.672Z,4.03
2023-04-29T23:57:36.000Z,3.53
